N511EM MDJB-TJPS
Flight info
| Callsign | N511EM |
|---|---|
| Flight time | N/A |
| Altitude | 13000 |
| Route | DCT CDO W41 MELLA G633 MAZ DCT |
| Aircraft | K100/L-SBDGRY/S |
Departure
| Time | N/A |
|---|---|
| Airport | La Isabela International Airport (MDJB) |
Arrival
| Time | 2026-04-17 00:12 |
|---|---|
| Airport | Mercedita International Airport (TJPS) |
| Time | Latitude | Longitude | Altitude | Speed | Heading |
|---|---|---|---|---|---|
| 2026-04-16 23:33 | 18.24193 | -68.28033 | 12965 ft | 144 kts | 99° |
| 2026-04-16 23:34 | 18.24050 | -68.27060 | 12964 ft | 127 kts | 99° |
| 2026-04-16 23:34 | 18.23923 | -68.26183 | 12965 ft | 116 kts | 99° |
| 2026-04-16 23:34 | 18.23803 | -68.25374 | 12962 ft | 107 kts | 100° |
| 2026-04-16 23:34 | 18.23695 | -68.24641 | 12958 ft | 97 kts | 99° |
| 2026-04-16 23:35 | 18.23597 | -68.23972 | 12960 ft | 89 kts | 99° |
| 2026-04-16 23:35 | 18.23508 | -68.23353 | 12961 ft | 83 kts | 100° |
| 2026-04-16 23:35 | 18.23422 | -68.22766 | 12931 ft | 81 kts | 101° |
| 2026-04-16 23:35 | 18.23332 | -68.22176 | 12876 ft | 82 kts | 100° |
| 2026-04-16 23:36 | 18.23239 | -68.21574 | 12818 ft | 83 kts | 101° |
| 2026-04-16 23:36 | 18.23191 | -68.20998 | 13042 ft | 67 kts | 78° |
| 2026-04-16 23:36 | 18.23525 | -68.20656 | 13064 ft | 111 kts | 40° |
| 2026-04-16 23:36 | 18.23838 | -68.19803 | 13037 ft | 145 kts | 109° |
| 2026-04-16 23:37 | 18.23191 | -68.18931 | 13112 ft | 162 kts | 135° |
| 2026-04-16 23:37 | 18.22592 | -68.17862 | 12992 ft | 179 kts | 109° |
| 2026-04-16 23:37 | 18.22364 | -68.16555 | 12993 ft | 184 kts | 98° |
| 2026-04-16 23:37 | 18.22234 | -68.15208 | 12991 ft | 186 kts | 96° |
| 2026-04-16 23:38 | 18.22082 | -68.13854 | 12989 ft | 187 kts | 98° |
| 2026-04-16 23:38 | 18.21882 | -68.12502 | 12993 ft | 187 kts | 99° |
| 2026-04-16 23:38 | 18.21673 | -68.11147 | 12995 ft | 187 kts | 99° |
| 2026-04-16 23:38 | 18.21471 | -68.09813 | 12996 ft | 187 kts | 99° |
| 2026-04-16 23:39 | 18.21269 | -68.08463 | 12996 ft | 187 kts | 99° |
| 2026-04-16 23:39 | 18.21066 | -68.07110 | 12996 ft | 187 kts | 99° |
| 2026-04-16 23:39 | 18.20863 | -68.05758 | 12996 ft | 188 kts | 99° |
| 2026-04-16 23:39 | 18.20659 | -68.04406 | 12996 ft | 187 kts | 99° |
| 2026-04-16 23:40 | 18.20456 | -68.03051 | 12996 ft | 187 kts | 99° |
| 2026-04-16 23:40 | 18.20252 | -68.01700 | 12996 ft | 187 kts | 99° |
| 2026-04-16 23:40 | 18.20051 | -68.00349 | 12996 ft | 187 kts | 98° |
| 2026-04-16 23:40 | 18.20064 | -67.98986 | 12994 ft | 187 kts | 85° |
| 2026-04-16 23:41 | 18.20169 | -67.97622 | 12998 ft | 187 kts | 86° |
| 2026-04-16 23:41 | 18.20258 | -67.96258 | 12999 ft | 187 kts | 86° |
| 2026-04-16 23:41 | 18.20350 | -67.94911 | 12999 ft | 187 kts | 86° |
| 2026-04-16 23:41 | 18.20444 | -67.93528 | 13002 ft | 188 kts | 86° |
| 2026-04-16 23:42 | 18.20536 | -67.92178 | 13002 ft | 188 kts | 86° |
| 2026-04-16 23:42 | 18.20629 | -67.90808 | 13002 ft | 187 kts | 86° |
| 2026-04-16 23:42 | 18.20721 | -67.89443 | 13002 ft | 187 kts | 86° |
| 2026-04-16 23:42 | 18.20815 | -67.88076 | 13003 ft | 188 kts | 86° |
| 2026-04-16 23:43 | 18.20908 | -67.86706 | 13004 ft | 188 kts | 86° |
| 2026-04-16 23:43 | 18.21001 | -67.85340 | 13005 ft | 187 kts | 86° |
| 2026-04-16 23:43 | 18.21095 | -67.83977 | 13007 ft | 187 kts | 86° |
| 2026-04-16 23:43 | 18.21187 | -67.82612 | 13008 ft | 187 kts | 86° |
| 2026-04-16 23:44 | 18.21280 | -67.81243 | 13007 ft | 188 kts | 86° |
| 2026-04-16 23:44 | 18.21373 | -67.79872 | 13007 ft | 188 kts | 86° |
| 2026-04-16 23:44 | 18.21464 | -67.78504 | 13008 ft | 187 kts | 86° |
| 2026-04-16 23:44 | 18.21556 | -67.77137 | 12995 ft | 188 kts | 86° |
| 2026-04-16 23:45 | 18.21650 | -67.75766 | 12995 ft | 188 kts | 86° |
| 2026-04-16 23:45 | 18.21742 | -67.74397 | 12995 ft | 188 kts | 86° |
| 2026-04-16 23:45 | 18.21834 | -67.73029 | 12994 ft | 187 kts | 86° |
| 2026-04-16 23:45 | 18.21926 | -67.71663 | 12995 ft | 187 kts | 86° |
| 2026-04-16 23:46 | 18.22018 | -67.70298 | 12991 ft | 187 kts | 86° |
| 2026-04-16 23:46 | 18.22109 | -67.68931 | 12991 ft | 188 kts | 86° |
| 2026-04-16 23:46 | 18.22201 | -67.67562 | 12991 ft | 187 kts | 86° |
| 2026-04-16 23:46 | 18.22293 | -67.66197 | 12992 ft | 187 kts | 86° |
| 2026-04-16 23:47 | 18.22384 | -67.64835 | 12992 ft | 187 kts | 86° |
| 2026-04-16 23:47 | 18.22476 | -67.63468 | 12991 ft | 188 kts | 86° |
| 2026-04-16 23:47 | 18.22567 | -67.62098 | 12992 ft | 188 kts | 86° |
| 2026-04-16 23:47 | 18.22657 | -67.60726 | 12992 ft | 188 kts | 86° |
| 2026-04-16 23:48 | 18.22748 | -67.59357 | 12991 ft | 188 kts | 86° |
| 2026-04-16 23:48 | 18.22839 | -67.57991 | 12992 ft | 187 kts | 86° |
| 2026-04-16 23:48 | 18.22931 | -67.56622 | 12991 ft | 188 kts | 86° |
| 2026-04-16 23:48 | 18.23022 | -67.55252 | 12991 ft | 187 kts | 86° |
| 2026-04-16 23:49 | 18.23113 | -67.53885 | 12992 ft | 187 kts | 86° |
| 2026-04-16 23:49 | 18.23203 | -67.52516 | 12992 ft | 188 kts | 86° |
| 2026-04-16 23:49 | 18.23294 | -67.51143 | 12992 ft | 189 kts | 86° |
| 2026-04-16 23:49 | 18.23384 | -67.49767 | 12992 ft | 189 kts | 86° |
| 2026-04-16 23:50 | 18.23475 | -67.48392 | 12992 ft | 188 kts | 86° |
| 2026-04-16 23:50 | 18.23566 | -67.47016 | 12992 ft | 188 kts | 86° |
| 2026-04-16 23:50 | 18.23657 | -67.45640 | 12992 ft | 189 kts | 86° |
| 2026-04-16 23:50 | 18.23748 | -67.44281 | 12992 ft | 189 kts | 86° |
| 2026-04-16 23:51 | 18.23838 | -67.42903 | 12992 ft | 189 kts | 86° |
| 2026-04-16 23:51 | 18.23928 | -67.41528 | 12992 ft | 188 kts | 86° |
| 2026-04-16 23:51 | 18.24018 | -67.40151 | 12992 ft | 188 kts | 86° |
| 2026-04-16 23:51 | 18.24108 | -67.38774 | 12992 ft | 189 kts | 86° |
| 2026-04-16 23:52 | 18.24198 | -67.37397 | 12992 ft | 189 kts | 86° |
| 2026-04-16 23:52 | 18.24288 | -67.36022 | 12992 ft | 188 kts | 86° |
| 2026-04-16 23:52 | 18.24378 | -67.34644 | 12992 ft | 189 kts | 86° |
| 2026-04-16 23:52 | 18.24469 | -67.33265 | 12992 ft | 189 kts | 86° |
| 2026-04-16 23:53 | 18.24558 | -67.31887 | 12993 ft | 189 kts | 86° |
| 2026-04-16 23:53 | 18.24649 | -67.30497 | 12782 ft | 190 kts | 86° |
| 2026-04-16 23:53 | 18.24739 | -67.29123 | 12536 ft | 187 kts | 86° |
| 2026-04-16 23:53 | 18.24827 | -67.27769 | 12240 ft | 185 kts | 86° |
| 2026-04-16 23:54 | 18.24915 | -67.26424 | 11943 ft | 183 kts | 86° |
| 2026-04-16 23:54 | 18.25001 | -67.25092 | 11652 ft | 182 kts | 86° |
| 2026-04-16 23:54 | 18.25087 | -67.23770 | 11362 ft | 180 kts | 86° |
| 2026-04-16 23:54 | 18.25170 | -67.22482 | 11078 ft | 176 kts | 86° |
| 2026-04-16 23:55 | 18.25252 | -67.21220 | 10788 ft | 172 kts | 86° |
| 2026-04-16 23:55 | 18.25335 | -67.19965 | 10504 ft | 170 kts | 86° |
| 2026-04-16 23:55 | 18.25415 | -67.18723 | 10222 ft | 170 kts | 86° |
| 2026-04-16 23:55 | 18.25494 | -67.17491 | 9946 ft | 169 kts | 86° |
| 2026-04-16 23:56 | 18.25573 | -67.16258 | 9636 ft | 168 kts | 87° |
| 2026-04-16 23:56 | 18.25415 | -67.15056 | 9342 ft | 167 kts | 110° |
| 2026-04-16 23:56 | 18.24820 | -67.14018 | 9047 ft | 166 kts | 128° |
| 2026-04-16 23:56 | 18.24068 | -67.13093 | 8759 ft | 166 kts | 129° |
| 2026-04-16 23:57 | 18.23333 | -67.12150 | 8457 ft | 168 kts | 127° |
| 2026-04-16 23:57 | 18.22605 | -67.11190 | 8165 ft | 168 kts | 127° |
| 2026-04-16 23:57 | 18.21881 | -67.10236 | 7869 ft | 166 kts | 126° |
| 2026-04-16 23:57 | 18.21158 | -67.09291 | 7589 ft | 165 kts | 126° |
| 2026-04-16 23:58 | 18.20446 | -67.08338 | 7297 ft | 166 kts | 126° |
| 2026-04-16 23:58 | 18.19730 | -67.07390 | 7023 ft | 165 kts | 126° |
| 2026-04-16 23:58 | 18.19012 | -67.06442 | 6748 ft | 165 kts | 126° |
| 2026-04-16 23:58 | 18.18298 | -67.05500 | 6461 ft | 164 kts | 126° |
| 2026-04-16 23:59 | 18.17585 | -67.04560 | 6170 ft | 165 kts | 126° |
| 2026-04-16 23:59 | 18.16885 | -67.03640 | 6004 ft | 158 kts | 126° |
| 2026-04-16 23:59 | 18.16216 | -67.02757 | 5999 ft | 152 kts | 126° |
| 2026-04-16 23:59 | 18.15567 | -67.01901 | 6010 ft | 148 kts | 126° |
| 2026-04-17 00:00 | 18.14932 | -67.01064 | 6002 ft | 145 kts | 126° |
| 2026-04-17 00:00 | 18.14299 | -67.00229 | 5997 ft | 145 kts | 126° |
| 2026-04-17 00:00 | 18.13666 | -66.99394 | 6011 ft | 149 kts | 126° |
| 2026-04-17 00:00 | 18.13000 | -66.98524 | 6013 ft | 154 kts | 126° |
| 2026-04-17 00:01 | 18.12327 | -66.97638 | 6013 ft | 155 kts | 126° |
| 2026-04-17 00:01 | 18.11647 | -66.96741 | 6008 ft | 157 kts | 126° |
| 2026-04-17 00:01 | 18.10967 | -66.95839 | 6011 ft | 158 kts | 126° |
| 2026-04-17 00:01 | 18.10285 | -66.94938 | 6007 ft | 157 kts | 126° |
| 2026-04-17 00:02 | 18.09601 | -66.94038 | 6010 ft | 158 kts | 126° |
| 2026-04-17 00:02 | 18.08912 | -66.93135 | 6008 ft | 158 kts | 126° |
| 2026-04-17 00:02 | 18.08225 | -66.92232 | 6009 ft | 158 kts | 126° |
| 2026-04-17 00:02 | 18.07536 | -66.91326 | 6009 ft | 158 kts | 126° |
| 2026-04-17 00:03 | 18.06847 | -66.90418 | 5975 ft | 161 kts | 126° |
| 2026-04-17 00:03 | 18.06135 | -66.89483 | 5777 ft | 167 kts | 127° |
| 2026-04-17 00:03 | 18.05405 | -66.88526 | 5555 ft | 168 kts | 126° |
| 2026-04-17 00:03 | 18.04676 | -66.87564 | 5331 ft | 168 kts | 127° |
| 2026-04-17 00:04 | 18.03947 | -66.86609 | 5110 ft | 167 kts | 127° |
| 2026-04-17 00:04 | 18.03217 | -66.85658 | 4887 ft | 167 kts | 127° |
| 2026-04-17 00:04 | 18.02490 | -66.84713 | 4662 ft | 166 kts | 127° |
| 2026-04-17 00:04 | 18.01765 | -66.83771 | 4442 ft | 166 kts | 127° |
| 2026-04-17 00:05 | 18.01035 | -66.82826 | 4224 ft | 167 kts | 127° |
| 2026-04-17 00:05 | 18.00305 | -66.81890 | 4000 ft | 168 kts | 127° |
| 2026-04-17 00:05 | 17.99804 | -66.80817 | 3754 ft | 167 kts | 92° |
| 2026-04-17 00:05 | 18.00133 | -66.79652 | 3496 ft | 168 kts | 71° |
| 2026-04-17 00:06 | 18.00404 | -66.78461 | 3248 ft | 168 kts | 82° |
| 2026-04-17 00:06 | 18.00563 | -66.77245 | 3003 ft | 168 kts | 83° |
| 2026-04-17 00:06 | 18.00721 | -66.76024 | 2776 ft | 169 kts | 83° |
| 2026-04-17 00:06 | 18.00881 | -66.74797 | 2549 ft | 169 kts | 83° |
| 2026-04-17 00:07 | 18.01041 | -66.73569 | 2322 ft | 170 kts | 83° |
| 2026-04-17 00:07 | 18.01198 | -66.72372 | 2213 ft | 159 kts | 83° |
| 2026-04-17 00:07 | 18.01344 | -66.71240 | 2215 ft | 155 kts | 82° |
| 2026-04-17 00:07 | 18.01490 | -66.70118 | 2209 ft | 155 kts | 82° |
| 2026-04-17 00:08 | 18.01587 | -66.69375 | 2202 ft | 155 kts | 81° |
| 2026-04-17 00:08 | 18.01729 | -66.68278 | 2207 ft | 147 kts | 83° |
| 2026-04-17 00:08 | 18.01797 | -66.67263 | 2078 ft | 134 kts | 94° |
| 2026-04-17 00:08 | 18.01732 | -66.66307 | 1914 ft | 130 kts | 93° |
| 2026-04-17 00:09 | 18.01685 | -66.65382 | 1744 ft | 124 kts | 93° |
| 2026-04-17 00:09 | 18.01642 | -66.64497 | 1570 ft | 110 kts | 93° |
| 2026-04-17 00:09 | 18.01608 | -66.63789 | 1417 ft | 87 kts | 92° |
| 2026-04-17 00:09 | 18.01582 | -66.63129 | 1297 ft | 103 kts | 94° |
| 2026-04-17 00:10 | 18.01531 | -66.62319 | 1136 ft | 116 kts | 92° |
| 2026-04-17 00:10 | 18.01498 | -66.61435 | 882 ft | 123 kts | 91° |
| 2026-04-17 00:10 | 18.01515 | -66.60546 | 794 ft | 116 kts | 87° |
| 2026-04-17 00:10 | 18.01573 | -66.59746 | 692 ft | 101 kts | 86° |
| 2026-04-17 00:11 | 18.01574 | -66.59087 | 534 ft | 82 kts | 93° |
| 2026-04-17 00:11 | 18.01471 | -66.58499 | 417 ft | 90 kts | 102° |
| 2026-04-17 00:11 | 18.01298 | -66.57821 | 267 ft | 99 kts | 107° |
| 2026-04-17 00:11 | 18.01091 | -66.57151 | 91 ft | 90 kts | 108° |
| 2026-04-17 00:12 | 18.00939 | -66.56607 | 36 ft | 65 kts | 108° |
| 2026-04-17 00:12 | 18.00818 | -66.56234 | 20 ft | 39 kts | 109° |
| 2026-04-17 00:12 | 18.00816 | -66.56067 | 10 ft | 17 kts | 24° |
| 2026-04-17 00:12 | 18.00846 | -66.56055 | 11 ft | 0 kts | 20° |
| 2026-04-17 00:13 | 18.00846 | -66.56054 | 11 ft | 0 kts | 20° |
| 2026-04-17 00:13 | 18.00872 | -66.56044 | 11 ft | 8 kts | 20° |
| 2026-04-17 00:13 | 18.00908 | -66.55997 | 11 ft | 11 kts | 106° |
| 2026-04-17 00:13 | 18.00911 | -66.55957 | 11 ft | 0 kts | 34° |
| 2026-04-17 00:14 | 18.00912 | -66.55957 | 11 ft | 0 kts | 13° |